Terminal Aerodrome Forecast
Issued by NWS Amarillo, TX

Home | Current Version | Previous Version | Text Only | Print | Product List | Glossary On
Versions: 1 2 3 4 5 6 7 8 9 10 11 12 13 14 15 16 17 18 19 20 21 22 23
000
FTUS44 KAMA 301700 RRA
TAFGUY
TAF
KGUY 301740Z 3018/3118 02012G24KT P6SM OVC015
     FM302100 04014KT P6SM SCT015 OVC060
      TEMPO 3021/3101 BKN015
     FM310600 02006KT 4SM BR SCT005 OVC008
     FM311400 05012KT P6SM BKN080=

USA.gov is the U.S. government's official web portal to all federal, state and local government web resources and services.